createdAt,value
2022-07-29T00:02:37.687Z,79.00
2022-07-29T00:06:34.701Z,77.80
2022-07-29T00:10:31.754Z,78.90
2022-07-29T00:14:30.021Z,79.80
2022-07-29T00:18:27.080Z,80.00
2022-07-29T00:22:27.318Z,80.40
2022-07-29T00:26:24.330Z,79.80
2022-07-29T00:30:21.450Z,80.90
2022-07-29T00:34:37.633Z,81.10
2022-07-29T00:38:34.660Z,81.60
2022-07-29T00:42:31.687Z,80.80
2022-07-29T00:46:28.678Z,81.40
2022-07-29T00:50:26.306Z,80.60
2022-07-29T00:54:23.306Z,80.60
2022-07-29T00:58:20.518Z,80.40
2022-07-29T01:02:17.612Z,80.40
2022-07-29T01:06:17.592Z,80.10
2022-07-29T01:10:17.700Z,80.30
2022-07-29T01:14:18.619Z,81.00
2022-07-29T01:18:39.025Z,81.20
2022-07-29T01:22:36.081Z,81.80
2022-07-29T01:26:59.980Z,81.50
2022-07-29T01:30:58.147Z,82.40
2022-07-29T01:35:07.398Z,81.80
2022-07-29T01:39:24.069Z,83.70
2022-07-29T01:43:32.246Z,82.60
2022-07-29T01:48:01.377Z,81.80
2022-07-29T01:52:12.524Z,80.30
2022-07-29T01:56:12.689Z,80.10
2022-07-29T02:00:11.831Z,78.40
2022-07-29T02:04:29.623Z,78.10
2022-07-29T02:08:30.576Z,77.80
2022-07-29T02:12:32.154Z,78.20
2022-07-29T02:16:33.266Z,79.00
2022-07-29T02:20:32.818Z,80.40
2022-07-29T02:24:32.163Z,88.60
2022-07-29T02:28:31.896Z,90.90
2022-07-29T02:32:31.128Z,91.90
2022-07-29T02:36:30.364Z,92.40
2022-07-29T02:40:27.816Z,93.10
2022-07-29T02:44:31.366Z,92.70
2022-07-29T02:48:59.722Z,91.70
2022-07-29T02:53:08.574Z,92.40
2022-07-29T02:57:18.231Z,93.00
2022-07-29T03:01:30.053Z,92.60
2022-07-29T03:05:28.522Z,92.60
2022-07-29T03:09:27.586Z,93.30
2022-07-29T03:13:26.665Z,94.00
2022-07-29T03:17:24.737Z,93.10
2022-07-29T03:21:21.889Z,92.90
2022-07-29T03:25:21.013Z,93.60
2022-07-29T03:29:18.078Z,93.70
2022-07-29T03:33:17.414Z,93.40
2022-07-29T03:37:14.375Z,93.80
2022-07-29T03:41:15.664Z,94.30
2022-07-29T03:45:19.121Z,94.10
2022-07-29T03:49:18.171Z,93.90
2022-07-29T03:53:15.543Z,94.30
2022-07-29T03:57:14.590Z,94.50
2022-07-29T04:01:12.821Z,94.10
2022-07-29T04:05:14.796Z,94.00
2022-07-29T04:09:13.113Z,92.70
2022-07-29T04:13:10.158Z,92.10
2022-07-29T04:17:07.218Z,91.20
2022-07-29T04:21:05.124Z,92.10
2022-07-29T04:25:04.186Z,92.40
2022-07-29T04:29:02.138Z,93.10
2022-07-29T04:33:01.836Z,92.60
2022-07-29T04:36:59.008Z,91.70
2022-07-29T04:40:55.966Z,91.40
2022-07-29T04:44:53.279Z,91.20
2022-07-29T04:48:50.459Z,91.10
2022-07-29T04:52:47.552Z,92.10
2022-07-29T04:56:44.667Z,93.10
2022-07-29T05:00:42.269Z,93.20
2022-07-29T05:04:39.292Z,92.60
2022-07-29T05:08:36.250Z,91.80
2022-07-29T05:12:33.367Z,91.20
2022-07-29T05:16:32.007Z,91.00
2022-07-29T05:20:30.595Z,90.80
2022-07-29T05:24:27.551Z,91.00
2022-07-29T05:28:24.568Z,91.70
2022-07-29T05:32:21.848Z,91.40
2022-07-29T05:36:19.316Z,91.10
2022-07-29T05:40:16.346Z,91.20
2022-07-29T05:44:14.759Z,91.30
2022-07-29T05:48:12.173Z,91.10
2022-07-29T05:52:10.562Z,91.10
2022-07-29T05:56:08.354Z,90.00
2022-07-29T06:00:06.337Z,89.70
2022-07-29T06:04:09.360Z,88.30
2022-07-29T06:08:09.505Z,87.60
2022-07-29T06:12:06.695Z,88.10
2022-07-29T06:16:03.996Z,88.90
2022-07-29T06:20:01.220Z,90.00
2022-07-29T06:23:58.187Z,89.70
2022-07-29T06:27:55.293Z,89.50
2022-07-29T06:31:52.433Z,89.30
2022-07-29T06:35:50.333Z,90.20
2022-07-29T06:40:10.657Z,90.40
2022-07-29T06:44:07.816Z,90.40
2022-07-29T06:48:05.425Z,90.10
2022-07-29T06:52:03.267Z,89.70
2022-07-29T06:56:02.089Z,88.50
2022-07-29T06:59:59.089Z,88.00
2022-07-29T07:03:56.216Z,86.00
2022-07-29T07:07:53.217Z,85.40
2022-07-29T07:11:52.429Z,85.60
2022-07-29T07:15:52.878Z,85.40
2022-07-29T07:19:49.864Z,85.00
2022-07-29T07:23:47.755Z,84.30
2022-07-29T07:27:46.957Z,84.20
2022-07-29T07:31:44.056Z,83.20
2022-07-29T07:35:43.267Z,83.40
2022-07-29T07:39:40.409Z,81.30
2022-07-29T07:43:37.472Z,79.60
2022-07-29T07:47:34.621Z,78.70
2022-07-29T07:51:31.706Z,77.90
2022-07-29T07:55:29.504Z,77.80
2022-07-29T07:59:30.101Z,76.70
2022-07-29T08:03:27.095Z,76.70
2022-07-29T08:07:24.732Z,77.20
2022-07-29T08:11:22.069Z,78.20
2022-07-29T08:15:19.056Z,75.80
2022-07-29T08:19:16.386Z,73.80
2022-07-29T08:23:13.478Z,73.20
2022-07-29T08:27:33.543Z,72.90
2022-07-29T08:31:29.222Z,73.20
2022-07-29T08:35:27.039Z,72.30
2022-07-29T08:39:25.899Z,72.30
2022-07-29T08:43:23.242Z,72.70
2022-07-29T08:47:20.228Z,73.30
2022-07-29T08:51:20.357Z,72.70
2022-07-29T08:55:21.436Z,74.70
2022-07-29T08:59:22.187Z,76.00
2022-07-29T09:03:23.957Z,76.40
2022-07-29T09:07:21.043Z,76.50
2022-07-29T09:11:18.332Z,75.30
2022-07-29T09:15:15.739Z,74.40
2022-07-29T09:19:29.936Z,75.40
2022-07-29T09:23:26.923Z,74.00
2022-07-29T09:27:27.667Z,74.70
2022-07-29T09:31:36.362Z,77.10
2022-07-29T09:35:36.682Z,77.00
2022-07-29T09:39:46.773Z,77.30
2022-07-29T09:43:58.468Z,75.20
2022-07-29T09:47:56.786Z,75.00
2022-07-29T09:52:09.622Z,75.00
2022-07-29T09:56:07.237Z,73.70
2022-07-29T10:00:16.036Z,71.50
2022-07-29T10:04:13.389Z,70.20
2022-07-29T10:08:13.501Z,70.70
2022-07-29T10:12:15.491Z,71.80
2022-07-29T10:16:14.852Z,74.40
2022-07-29T10:20:16.293Z,75.20
2022-07-29T10:24:14.609Z,77.60
2022-07-29T10:28:16.264Z,76.40
2022-07-29T10:32:41.481Z,73.20
2022-07-29T10:37:19.572Z,70.20
2022-07-29T10:41:59.376Z,68.00
2022-07-29T10:46:00.371Z,66.30
2022-07-29T10:50:03.919Z,64.60
2022-07-29T10:54:05.968Z,63.10
2022-07-29T10:58:19.463Z,62.70
2022-07-29T11:02:42.505Z,63.70
2022-07-29T11:06:59.673Z,62.40
2022-07-29T11:11:29.738Z,62.50
2022-07-29T11:15:28.781Z,62.40
2022-07-29T11:19:30.534Z,63.00
2022-07-29T11:23:34.851Z,63.50
2022-07-29T11:27:40.641Z,62.30
2022-07-29T11:31:44.353Z,62.30
2022-07-29T11:35:41.524Z,60.40
2022-07-29T11:39:43.517Z,59.30
2022-07-29T11:43:59.230Z,59.10
2022-07-29T11:48:32.137Z,58.00
2022-07-29T11:52:21.484Z,58.60
2022-07-29T11:56:25.688Z,56.60
2022-07-29T12:00:30.801Z,54.00
2022-07-29T12:04:28.401Z,53.60
2022-07-29T12:08:27.013Z,53.40
2022-07-29T12:12:25.056Z,52.90
2022-07-29T12:16:27.948Z,54.80
2022-07-29T12:20:30.410Z,55.90
2022-07-29T12:30:05.492Z,56.90
2022-07-29T12:34:03.187Z,53.50
2022-07-29T12:38:00.281Z,53.20
2022-07-29T12:42:03.842Z,53.00
2022-07-29T12:46:15.794Z,53.40
2022-07-29T12:50:22.110Z,53.40
2022-07-29T12:54:21.572Z,53.20
2022-07-29T12:58:30.869Z,52.20
2022-07-29T13:02:28.093Z,52.80
2022-07-29T13:06:45.809Z,53.50
2022-07-29T13:10:47.751Z,56.40
2022-07-29T13:14:50.974Z,58.40
2022-07-29T13:18:47.969Z,59.40
2022-07-29T13:22:49.447Z,61.20
2022-07-29T13:26:46.485Z,61.80
2022-07-29T13:30:44.909Z,63.40
2022-07-29T13:34:45.038Z,68.10
2022-07-29T13:38:42.067Z,75.50
2022-07-29T13:42:39.371Z,84.40
2022-07-29T13:46:36.374Z,93.90
2022-07-29T13:50:37.796Z,96.40
2022-07-29T13:54:42.157Z,99.50
2022-07-29T13:58:39.623Z,99.90
2022-07-29T14:02:36.654Z,99.90
2022-07-29T14:06:33.814Z,99.90
2022-07-29T14:10:31.674Z,99.90
2022-07-29T14:14:28.721Z,99.90
2022-07-29T14:18:26.089Z,99.90
2022-07-29T14:22:25.482Z,99.90
2022-07-29T14:26:24.274Z,99.90
2022-07-29T14:30:21.792Z,99.90
2022-07-29T14:34:19.028Z,99.90
2022-07-29T14:38:16.120Z,99.90
2022-07-29T14:42:14.193Z,99.90
2022-07-29T14:46:11.292Z,99.90
2022-07-29T14:50:09.953Z,99.90
2022-07-29T14:54:07.534Z,99.90
2022-07-29T14:58:10.957Z,99.90
2022-07-29T15:02:10.357Z,99.90
2022-07-29T15:06:07.445Z,99.90
2022-07-29T15:10:05.328Z,99.90
2022-07-29T15:14:05.741Z,99.90
2022-07-29T15:18:02.849Z,99.90
2022-07-29T15:22:00.267Z,99.90
2022-07-29T15:25:58.170Z,99.90
2022-07-29T15:29:55.135Z,99.90
2022-07-29T15:33:56.974Z,99.90
2022-07-29T15:37:55.412Z,99.90
2022-07-29T15:41:52.637Z,99.90
2022-07-29T15:46:09.204Z,99.90
2022-07-29T15:50:07.725Z,99.90
2022-07-29T15:54:05.495Z,99.90
2022-07-29T15:58:02.444Z,99.90
2022-07-29T16:02:01.120Z,99.90
2022-07-29T16:05:58.058Z,99.90
2022-07-29T16:09:55.065Z,99.90
2022-07-29T16:13:52.219Z,99.90
2022-07-29T16:17:50.626Z,99.90
2022-07-29T16:21:48.425Z,99.90
2022-07-29T16:26:01.478Z,99.90
2022-07-29T16:29:58.812Z,99.90
2022-07-29T16:33:58.619Z,99.90
2022-07-29T16:37:55.678Z,99.90
2022-07-29T16:41:54.913Z,99.90
2022-07-29T16:45:54.037Z,99.90
2022-07-29T16:49:52.798Z,99.90
2022-07-29T16:53:50.408Z,99.90
2022-07-29T16:57:47.700Z,99.90
2022-07-29T17:01:44.810Z,99.90
2022-07-29T17:05:52.774Z,99.90
2022-07-29T17:09:55.365Z,99.90
2022-07-29T17:13:52.959Z,99.90
2022-07-29T17:17:56.505Z,99.90
2022-07-29T17:22:01.012Z,99.90
2022-07-29T17:26:02.414Z,99.90
2022-07-29T17:29:59.652Z,99.90
2022-07-29T17:33:59.902Z,99.90
2022-07-29T17:37:57.882Z,99.90
2022-07-29T17:41:54.825Z,99.90
2022-07-29T17:45:52.727Z,99.90
2022-07-29T17:49:50.130Z,99.90
2022-07-29T17:53:47.088Z,99.90
2022-07-29T17:57:44.064Z,99.90
2022-07-29T18:01:43.803Z,99.90
2022-07-29T18:05:41.732Z,99.90
2022-07-29T18:09:38.880Z,99.90
2022-07-29T18:13:35.888Z,99.90
2022-07-29T18:17:48.378Z,99.90
2022-07-29T18:21:53.453Z,99.90
2022-07-29T18:25:52.384Z,99.90
2022-07-29T18:29:51.265Z,99.90
2022-07-29T18:33:48.575Z,99.90
2022-07-29T18:38:01.058Z,99.90
2022-07-29T18:41:59.676Z,99.90
2022-07-29T18:45:56.672Z,99.90
2022-07-29T18:49:54.281Z,99.90
2022-07-29T18:53:51.832Z,99.90
2022-07-29T18:57:55.522Z,99.90
2022-07-29T19:01:54.470Z,99.90
2022-07-29T19:05:51.858Z,99.90
2022-07-29T19:09:49.338Z,99.90
2022-07-29T19:13:46.799Z,99.90
2022-07-29T19:17:43.863Z,99.90
2022-07-29T19:21:41.520Z,99.90
2022-07-29T19:25:53.114Z,99.90
2022-07-29T19:29:50.854Z,99.90
2022-07-29T19:33:47.868Z,99.90
2022-07-29T19:37:44.889Z,99.90
2022-07-29T19:41:41.922Z,99.90
2022-07-29T19:45:39.106Z,99.90
2022-07-29T19:49:37.798Z,99.90
2022-07-29T19:53:34.776Z,99.90
2022-07-29T19:57:40.770Z,99.90
2022-07-29T20:01:38.415Z,99.90
2022-07-29T20:05:35.476Z,99.90
2022-07-29T20:09:32.560Z,99.90
2022-07-29T20:13:31.781Z,99.90
2022-07-29T20:17:29.052Z,99.90
2022-07-29T20:21:26.894Z,99.90
2022-07-29T20:25:24.355Z,99.90
2022-07-29T20:29:21.932Z,99.90
2022-07-29T20:33:19.249Z,99.90
2022-07-29T20:37:18.650Z,99.90
2022-07-29T20:41:15.809Z,99.90
2022-07-29T20:45:14.039Z,99.90
2022-07-29T20:49:11.940Z,99.90
2022-07-29T20:53:09.635Z,99.90
2022-07-29T20:57:06.887Z,99.90
2022-07-29T21:01:05.039Z,99.90
2022-07-29T21:05:02.101Z,99.90
2022-07-29T21:09:01.192Z,99.90
2022-07-29T21:12:58.707Z,99.90
2022-07-29T21:16:55.824Z,99.90
2022-07-29T21:20:58.092Z,99.90
2022-07-29T21:24:55.307Z,99.90
2022-07-29T21:28:52.404Z,99.90
2022-07-29T21:32:49.503Z,99.90
2022-07-29T21:36:48.684Z,99.90
2022-07-29T21:40:48.935Z,99.90
2022-07-29T21:44:46.047Z,99.90
2022-07-29T21:48:44.639Z,99.90
2022-07-29T21:52:41.839Z,99.90
2022-07-29T21:56:38.810Z,99.90
2022-07-29T22:00:35.851Z,99.90
2022-07-29T22:04:34.164Z,99.90
2022-07-29T22:08:31.340Z,99.90
2022-07-29T22:12:28.359Z,99.90
2022-07-29T22:16:25.986Z,99.90
2022-07-29T22:20:24.240Z,99.90
2022-07-29T22:24:21.289Z,99.90
2022-07-29T22:28:18.287Z,99.90
2022-07-29T22:32:15.268Z,99.90
2022-07-29T22:36:12.276Z,99.90
2022-07-29T22:40:09.796Z,99.90
2022-07-29T22:44:06.754Z,99.90
2022-07-29T22:48:04.409Z,99.90
2022-07-29T22:52:01.434Z,99.90
2022-07-29T22:55:58.461Z,99.90
2022-07-29T22:59:55.445Z,99.90
2022-07-29T23:03:52.442Z,99.90
2022-07-29T23:07:49.472Z,99.90
2022-07-29T23:11:47.221Z,99.90
2022-07-29T23:15:44.626Z,99.90
2022-07-29T23:19:41.613Z,99.90
2022-07-29T23:23:38.736Z,99.90
2022-07-29T23:27:36.429Z,99.90
2022-07-29T23:31:33.431Z,99.90
2022-07-29T23:35:39.045Z,99.90
2022-07-29T23:39:36.089Z,99.90
2022-07-29T23:43:33.028Z,99.90
2022-07-29T23:47:30.118Z,99.90
2022-07-29T23:51:29.186Z,99.90
2022-07-29T23:55:36.331Z,99.90
2022-07-29T23:59:36.149Z,99.90
